Time;durP1;ratioP1;P1;durP2;ratioP2;P2;SDS_P1;SDS_P2;PMS_P1;PMS_P2;Temp;Humidity;BMP_temperature;BMP_pressure;BME280_temperature;BME280_humidity;BME280_pressure;Samples;Min_cycle;Max_cycle;Signal;HPM_P1;HPM_P2
2022/08/16 00:01:56;;;;;;;18.25;16.52;;;;;;;;;;5098802;28;20052;-73
2022/08/16 00:04:22;;;;;;;19.42;17.52;;;;;;;;;;5107962;28;20043;-72
2022/08/16 00:06:48;;;;;;;19.95;18.05;;;;;;;;;;5087867;28;20104;-72
2022/08/16 00:09:14;;;;;;;18.27;16.33;;;;;;;;;;5106047;28;20055;-72
2022/08/16 00:11:42;;;;;;;17.20;15.63;;;;;;;;;;5100202;28;20039;-73
2022/08/16 00:14:10;;;;;;;17.90;16.10;;;;;;;;;;5102846;28;20039;-73
2022/08/16 00:16:37;;;;;;;18.85;16.50;;;;;;;;;;5098883;28;20040;-73
2022/08/16 00:19:03;;;;;;;18.30;16.50;;;;;;;;;;5097944;28;20070;-71
2022/08/16 00:21:30;;;;;;;18.45;16.55;;;;;;;;;;5097993;28;20507;-73
2022/08/16 00:23:56;;;;;;;19.67;17.73;;;;;;;;;;5105485;28;20043;-73
2022/08/16 00:26:23;;;;;;;19.58;17.52;;;;;;;;;;5118737;28;20040;-72
2022/08/16 00:28:49;;;;;;;19.67;17.63;;;;;;;;;;5116430;28;20044;-72
2022/08/16 00:31:15;;;;;;;21.77;19.75;;;;;;;;;;5109562;28;20043;-72
2022/08/16 00:33:41;;;;;;;21.05;18.75;;;;;;;;;;5102332;28;20448;-72
2022/08/16 00:36:07;;;;;;;21.02;17.83;;;;;;;;;;5113891;28;20039;-73
2022/08/16 00:38:33;;;;;;;20.73;18.55;;;;;;;;;;5097769;28;20044;-72
2022/08/16 00:41:00;;;;;;;20.73;18.58;;;;;;;;;;5096605;28;20044;-73
2022/08/16 00:43:32;;;;;;;20.88;18.73;;;;;;;;;;5118970;28;20071;-72
2022/08/16 00:46:09;;;;;;;20.35;18.33;;;;;;;;;;5081628;28;20051;-73
2022/08/16 00:48:35;;;;;;;20.27;18.42;;;;;;;;;;5117881;28;20044;-73
2022/08/16 00:51:02;;;;;;;21.98;19.73;;;;;;;;;;5112272;28;20051;-72
2022/08/16 00:53:28;;;;;;;22.58;20.38;;;;;;;;;;5107305;28;20043;-73
2022/08/16 00:55:56;;;;;;;21.33;19.40;;;;;;;;;;5097192;28;20052;-72
2022/08/16 00:58:23;;;;;;;22.45;20.08;;;;;;;;;;5099629;28;20050;-73
2022/08/16 01:00:50;;;;;;;22.25;20.10;;;;;;;;;;5097288;28;20052;-72
2022/08/16 01:03:17;;;;;;;21.30;19.25;;;;;;;;;;5080975;28;20055;-73
2022/08/16 01:05:43;;;;;;;22.15;19.88;;;;;;;;;;5098955;28;20043;-72
2022/08/16 01:08:11;;;;;;;22.60;20.40;;;;;;;;;;5098563;28;20044;-72
2022/08/16 01:10:38;;;;;;;23.08;20.58;;;;;;;;;;5095876;28;20040;-73
2022/08/16 01:13:06;;;;;;;22.17;19.98;;;;;;;;;;5097246;28;20048;-72
2022/08/16 01:15:33;;;;;;;22.48;20.27;;;;;;;;;;5095740;28;20086;-72
2022/08/16 01:18:00;;;;;;;22.52;20.13;;;;;;;;;;5100006;28;20105;-72
2022/08/16 01:20:27;;;;;;;23.20;20.80;;;;;;;;;;5096717;28;20040;-72
2022/08/16 01:22:53;;;;;;;24.77;22.38;;;;;;;;;;5101459;28;20440;-73
2022/08/16 01:25:22;;;;;;;24.45;21.92;;;;;;;;;;5112500;28;20040;-73
2022/08/16 01:27:51;;;;;;;24.60;22.30;;;;;;;;;;5097481;28;20111;-72
2022/08/16 01:30:20;;;;;;;25.52;22.88;;;;;;;;;;5077934;28;20055;-73
2022/08/16 01:32:46;;;;;;;26.38;23.95;;;;;;;;;;5095358;28;20040;-72
2022/08/16 01:35:38;;;;;;;25.67;23.23;;;;;;;;;;5096485;28;20044;-73
2022/08/16 01:38:34;;;;;;;25.77;23.27;;;;;;;;;;5109741;28;20054;-73
2022/08/16 01:41:01;;;;;;;27.10;24.50;;;;;;;;;;5085251;28;20052;-73
2022/08/16 01:43:27;;;;;;;25.85;23.05;;;;;;;;;;5101445;28;20362;-73
2022/08/16 01:45:58;;;;;;;24.40;22.20;;;;;;;;;;5111937;28;20035;-73
2022/08/16 01:48:26;;;;;;;24.17;21.57;;;;;;;;;;5104928;28;20064;-72
2022/08/16 01:50:52;;;;;;;24.90;22.55;;;;;;;;;;5101419;28;20560;-73
2022/08/16 01:53:19;;;;;;;26.23;23.83;;;;;;;;;;5100301;28;20047;-73
2022/08/16 01:55:45;;;;;;;27.13;24.73;;;;;;;;;;5100227;28;20055;-72
2022/08/16 01:58:12;;;;;;;27.98;25.38;;;;;;;;;;5118781;28;20104;-73
2022/08/16 02:00:39;;;;;;;27.95;25.35;;;;;;;;;;5119854;28;20051;-73
2022/08/16 02:03:05;;;;;;;29.42;26.42;;;;;;;;;;5086215;28;20088;-72
2022/08/16 02:05:31;;;;;;;27.95;24.35;;;;;;;;;;5120804;28;20101;-73
2022/08/16 02:07:57;;;;;;;28.38;25.48;;;;;;;;;;5116322;28;20039;-73
2022/08/16 02:10:24;;;;;;;28.30;25.52;;;;;;;;;;5114944;28;20452;-74
2022/08/16 02:12:50;;;;;;;28.52;25.83;;;;;;;;;;5082566;28;20068;-73
2022/08/16 02:15:17;;;;;;;31.80;28.73;;;;;;;;;;5106274;28;20054;-73
2022/08/16 02:17:43;;;;;;;30.98;27.75;;;;;;;;;;5099727;28;20043;-73
2022/08/16 02:20:09;;;;;;;32.70;29.42;;;;;;;;;;5098701;28;20143;-75
2022/08/16 02:22:36;;;;;;;29.33;26.67;;;;;;;;;;5098006;28;20044;-73
2022/08/16 02:25:04;;;;;;;29.00;26.17;;;;;;;;;;5112450;28;20062;-73
2022/08/16 02:27:30;;;;;;;28.95;26.20;;;;;;;;;;5099852;28;20044;-73
2022/08/16 02:29:56;;;;;;;28.83;26.05;;;;;;;;;;5110737;28;20040;-73
2022/08/16 02:32:22;;;;;;;27.92;25.17;;;;;;;;;;5110848;28;20047;-73
2022/08/16 02:34:48;;;;;;;27.38;24.60;;;;;;;;;;5093181;28;20044;-73
2022/08/16 02:37:14;;;;;;;26.80;24.20;;;;;;;;;;5082237;28;20043;-73
2022/08/16 02:39:40;;;;;;;26.50;24.17;;;;;;;;;;5108969;28;20051;-73
2022/08/16 02:42:06;;;;;;;24.92;22.63;;;;;;;;;;5099195;28;20036;-72
2022/08/16 02:44:32;;;;;;;26.15;23.65;;;;;;;;;;5097838;28;20043;-74
2022/08/16 02:46:58;;;;;;;25.67;23.15;;;;;;;;;;5097663;28;20040;-73
2022/08/16 02:49:24;;;;;;;27.20;24.50;;;;;;;;;;5099640;28;20050;-74
2022/08/16 02:51:50;;;;;;;28.88;26.17;;;;;;;;;;5099722;28;20067;-74
2022/08/16 02:54:17;;;;;;;30.65;27.75;;;;;;;;;;5103201;28;20051;-74
2022/08/16 02:56:43;;;;;;;30.65;27.80;;;;;;;;;;5099222;28;20052;-72
2022/08/16 02:59:09;;;;;;;29.73;26.83;;;;;;;;;;5115136;28;20047;-74
2022/08/16 03:01:37;;;;;;;30.02;27.17;;;;;;;;;;5099715;28;20075;-73
2022/08/16 03:04:04;;;;;;;29.50;26.55;;;;;;;;;;5099193;28;20055;-73
2022/08/16 03:06:30;;;;;;;30.00;27.20;;;;;;;;;;5104492;28;20107;-72
2022/08/16 03:08:56;;;;;;;28.52;25.95;;;;;;;;;;5101497;28;20469;-74
2022/08/16 03:11:22;;;;;;;29.60;26.80;;;;;;;;;;5120360;28;20040;-74
2022/08/16 03:13:50;;;;;;;28.30;25.60;;;;;;;;;;5121013;28;20043;-74
2022/08/16 03:16:16;;;;;;;28.92;26.20;;;;;;;;;;5100331;28;20563;-73
2022/08/16 03:18:42;;;;;;;27.73;25.20;;;;;;;;;;5100032;28;20494;-73
2022/08/16 03:21:08;;;;;;;30.08;27.20;;;;;;;;;;5100289;28;20410;-73
2022/08/16 03:23:35;;;;;;;30.00;27.02;;;;;;;;;;5109821;28;20497;-72
2022/08/16 03:26:01;;;;;;;30.90;27.95;;;;;;;;;;5100315;28;20510;-72
2022/08/16 03:28:27;;;;;;;29.75;27.05;;;;;;;;;;5122232;28;20058;-73
2022/08/16 03:30:53;;;;;;;29.23;26.23;;;;;;;;;;5105497;28;20044;-73
2022/08/16 03:33:19;;;;;;;29.35;26.42;;;;;;;;;;5118839;28;20053;-73
2022/08/16 03:35:45;;;;;;;28.23;25.42;;;;;;;;;;5107925;28;20515;-73
2022/08/16 03:38:12;;;;;;;28.13;25.65;;;;;;;;;;5100528;28;20047;-72
2022/08/16 03:40:38;;;;;;;29.77;26.50;;;;;;;;;;5117825;28;20048;-72
2022/08/16 03:43:06;;;;;;;28.95;26.17;;;;;;;;;;5102894;28;20036;-73
2022/08/16 03:45:32;;;;;;;29.85;26.95;;;;;;;;;;5104314;28;20068;-72
2022/08/16 03:47:59;;;;;;;28.80;26.10;;;;;;;;;;5107896;28;20040;-74
2022/08/16 03:50:25;;;;;;;29.40;26.55;;;;;;;;;;5104015;28;20094;-72
2022/08/16 03:52:51;;;;;;;29.10;26.38;;;;;;;;;;5105001;28;20044;-72
2022/08/16 03:55:17;;;;;;;32.88;29.45;;;;;;;;;;5100691;28;20071;-73
2022/08/16 03:57:43;;;;;;;33.50;30.35;;;;;;;;;;5107518;28;20466;-73
2022/08/16 04:00:12;;;;;;;33.40;30.20;;;;;;;;;;5101155;28;20116;-73
2022/08/16 04:02:38;;;;;;;32.83;29.83;;;;;;;;;;5119717;28;20047;-72
2022/08/16 04:05:05;;;;;;;31.65;28.63;;;;;;;;;;5101846;28;20042;-73
2022/08/16 04:07:32;;;;;;;33.40;29.98;;;;;;;;;;5110242;28;20055;-73
2022/08/16 04:09:58;;;;;;;34.00;30.35;;;;;;;;;;5096927;28;20047;-72
2022/08/16 04:12:24;;;;;;;32.85;29.60;;;;;;;;;;5106884;28;20438;-73
2022/08/16 04:14:50;;;;;;;32.67;29.75;;;;;;;;;;5098640;28;20044;-72
2022/08/16 04:17:16;;;;;;;32.85;29.73;;;;;;;;;;5107970;28;20087;-73
2022/08/16 04:19:43;;;;;;;33.38;30.08;;;;;;;;;;5120570;28;20077;-72
2022/08/16 04:22:10;;;;;;;35.03;31.55;;;;;;;;;;5110847;28;20490;-72
2022/08/16 04:24:36;;;;;;;34.15;30.95;;;;;;;;;;5098786;28;20040;-72
2022/08/16 04:27:02;;;;;;;35.42;32.00;;;;;;;;;;5098697;28;20109;-73
2022/08/16 04:29:29;;;;;;;34.80;31.20;;;;;;;;;;5101495;28;20099;-72
2022/08/16 04:31:55;;;;;;;35.60;32.20;;;;;;;;;;5097085;28;20040;-72
2022/08/16 04:34:21;;;;;;;32.25;29.35;;;;;;;;;;5100083;28;20092;-72
2022/08/16 04:36:48;;;;;;;33.50;30.27;;;;;;;;;;5100234;28;20134;-73
2022/08/16 04:39:14;;;;;;;32.45;29.42;;;;;;;;;;5100392;28;20040;-72
2022/08/16 04:41:40;;;;;;;32.88;29.63;;;;;;;;;;5100939;28;20044;-71
2022/08/16 04:44:06;;;;;;;34.38;31.00;;;;;;;;;;5101381;28;20136;-72
2022/08/16 04:46:32;;;;;;;34.35;31.17;;;;;;;;;;5115369;28;20040;-73
2022/08/16 04:48:59;;;;;;;33.47;30.42;;;;;;;;;;5106212;28;20044;-72
2022/08/16 04:51:25;;;;;;;33.38;30.10;;;;;;;;;;5104160;28;20068;-72
2022/08/16 04:53:51;;;;;;;33.08;29.98;;;;;;;;;;5098959;28;20040;-73
2022/08/16 04:56:18;;;;;;;32.65;29.65;;;;;;;;;;5097920;28;20109;-72
2022/08/16 04:58:44;;;;;;;33.05;29.80;;;;;;;;;;5098732;28;20048;-72
2022/08/16 05:01:10;;;;;;;34.13;30.88;;;;;;;;;;5099278;28;20040;-72
2022/08/16 05:03:36;;;;;;;35.30;32.10;;;;;;;;;;5098923;28;20044;-72
2022/08/16 05:06:03;;;;;;;32.58;29.48;;;;;;;;;;5105524;28;20048;-72
2022/08/16 05:08:29;;;;;;;32.15;29.15;;;;;;;;;;5102027;28;20122;-72
2022/08/16 05:10:55;;;;;;;32.33;29.23;;;;;;;;;;5106135;28;20060;-72
2022/08/16 05:13:22;;;;;;;32.17;29.15;;;;;;;;;;5098962;28;20044;-72
2022/08/16 05:15:48;;;;;;;31.85;28.90;;;;;;;;;;5118323;28;20060;-72
2022/08/16 05:18:14;;;;;;;31.77;28.55;;;;;;;;;;5099976;28;20075;-72
2022/08/16 05:20:40;;;;;;;31.65;28.73;;;;;;;;;;5099167;28;20035;-72
2022/08/16 05:23:06;;;;;;;32.47;29.27;;;;;;;;;;5099447;28;20473;-72
2022/08/16 05:25:32;;;;;;;31.50;28.60;;;;;;;;;;5098451;28;20040;-72
2022/08/16 05:27:58;;;;;;;29.95;26.98;;;;;;;;;;5097278;28;20043;-72
2022/08/16 05:30:25;;;;;;;30.05;26.98;;;;;;;;;;5111653;28;20052;-72
2022/08/16 05:32:51;;;;;;;29.52;26.58;;;;;;;;;;5113983;28;20043;-72
2022/08/16 05:35:17;;;;;;;30.10;27.05;;;;;;;;;;5087489;28;20040;-72
2022/08/16 05:37:44;;;;;;;28.60;25.80;;;;;;;;;;5095810;28;20051;-72
2022/08/16 05:40:12;;;;;;;28.33;25.42;;;;;;;;;;5095888;28;20070;-72
2022/08/16 05:42:38;;;;;;;26.67;24.08;;;;;;;;;;5097752;28;20048;-72
2022/08/16 05:45:05;;;;;;;26.75;24.08;;;;;;;;;;5116188;28;20104;-72
2022/08/16 05:47:31;;;;;;;25.95;23.45;;;;;;;;;;5102064;28;20052;-72
2022/08/16 05:49:57;;;;;;;25.20;22.90;;;;;;;;;;5094826;28;20056;-72
2022/08/16 05:52:23;;;;;;;25.65;23.20;;;;;;;;;;5104429;28;20082;-72
2022/08/16 05:54:49;;;;;;;24.50;22.20;;;;;;;;;;5095312;28;20080;-72
2022/08/16 05:57:16;;;;;;;24.67;22.27;;;;;;;;;;5098018;28;20047;-72
2022/08/16 05:59:42;;;;;;;25.20;22.67;;;;;;;;;;5077181;28;20048;-73
2022/08/16 06:02:08;;;;;;;25.17;22.88;;;;;;;;;;5094119;28;20071;-72
2022/08/16 06:04:34;;;;;;;24.15;21.35;;;;;;;;;;5095242;28;20125;-73
2022/08/16 06:07:04;;;;;;;25.45;22.77;;;;;;;;;;5104796;28;20047;-72
2022/08/16 06:09:30;;;;;;;25.30;22.80;;;;;;;;;;5108078;28;20047;-72
2022/08/16 06:11:56;;;;;;;23.95;21.65;;;;;;;;;;5101351;28;20042;-72
2022/08/16 06:14:22;;;;;;;22.77;20.63;;;;;;;;;;5102036;28;20040;-73
2022/08/16 06:16:48;;;;;;;23.17;20.95;;;;;;;;;;5114077;28;20039;-72
2022/08/16 06:19:14;;;;;;;20.27;18.30;;;;;;;;;;5091802;28;20096;-73
2022/08/16 06:21:41;;;;;;;22.73;18.88;;;;;;;;;;5093680;28;20059;-72
2022/08/16 06:24:07;;;;;;;21.60;19.42;;;;;;;;;;5095956;28;20092;-72
2022/08/16 06:26:33;;;;;;;20.20;18.10;;;;;;;;;;5080136;28;20066;-72
2022/08/16 06:28:59;;;;;;;19.02;17.08;;;;;;;;;;5080564;28;20937;-72
2022/08/16 06:31:25;;;;;;;18.95;17.13;;;;;;;;;;5107661;28;20134;-72
2022/08/16 06:33:51;;;;;;;16.98;15.32;;;;;;;;;;5098820;28;20050;-73
2022/08/16 06:36:17;;;;;;;16.92;15.43;;;;;;;;;;5114846;28;20063;-73
2022/08/16 06:38:43;;;;;;;15.93;14.27;;;;;;;;;;5103469;28;20454;-73
2022/08/16 06:41:09;;;;;;;16.58;14.48;;;;;;;;;;5077381;28;20076;-73
2022/08/16 06:43:36;;;;;;;18.73;13.02;;;;;;;;;;5099244;28;20122;-73
2022/08/16 06:46:04;;;;;;;14.52;13.00;;;;;;;;;;5110485;28;20442;-73
2022/08/16 06:48:30;;;;;;;14.35;12.88;;;;;;;;;;5084680;28;20071;-73
2022/08/16 06:50:57;;;;;;;16.58;13.68;;;;;;;;;;5113773;28;20119;-73
2022/08/16 06:53:23;;;;;;;15.32;13.45;;;;;;;;;;5116734;28;20529;-72
2022/08/16 06:55:49;;;;;;;15.30;13.40;;;;;;;;;;5098269;28;20059;-71
2022/08/16 06:58:15;;;;;;;16.77;13.15;;;;;;;;;;5116792;28;20058;-72
2022/08/16 07:00:41;;;;;;;17.90;13.55;;;;;;;;;;5115144;28;20398;-72
2022/08/16 07:03:07;;;;;;;18.33;11.93;;;;;;;;;;5111217;28;20016;-73
2022/08/16 07:05:34;;;;;;;16.98;11.70;;;;;;;;;;5095994;28;20044;-73
2022/08/16 07:08:03;;;;;;;20.95;12.40;;;;;;;;;;5104204;28;20071;-73
2022/08/16 07:10:29;;;;;;;13.52;12.10;;;;;;;;;;5105436;28;20131;-74
2022/08/16 07:12:55;;;;;;;14.02;10.90;;;;;;;;;;5098833;28;20047;-73
2022/08/16 07:15:21;;;;;;;20.92;10.95;;;;;;;;;;5102923;28;20063;-74
2022/08/16 07:17:48;;;;;;;18.77;11.18;;;;;;;;;;5097565;28;20118;-73
2022/08/16 07:20:14;;;;;;;13.23;11.75;;;;;;;;;;5105440;28;20044;-74
2022/08/16 07:22:41;;;;;;;20.58;11.35;;;;;;;;;;5103847;28;20039;-74
2022/08/16 07:25:09;;;;;;;12.43;10.80;;;;;;;;;;5078951;28;20054;-73
2022/08/16 07:27:35;;;;;;;13.13;11.75;;;;;;;;;;5095522;28;20421;-73
2022/08/16 07:30:01;;;;;;;16.17;11.60;;;;;;;;;;5095460;28;20131;-73
2022/08/16 07:32:28;;;;;;;13.27;11.82;;;;;;;;;;5100281;28;20067;-74
2022/08/16 07:34:53;;;;;;;14.65;13.10;;;;;;;;;;5114743;28;20071;-74
2022/08/16 07:37:20;;;;;;;14.85;12.18;;;;;;;;;;5115732;28;20059;-74
2022/08/16 07:39:46;;;;;;;13.77;12.35;;;;;;;;;;5115751;28;20044;-74
2022/08/16 07:42:12;;;;;;;14.82;12.32;;;;;;;;;;5112728;28;20047;-73
2022/08/16 07:44:38;;;;;;;14.65;13.13;;;;;;;;;;5087527;28;20379;-71
2022/08/16 07:47:04;;;;;;;15.18;12.45;;;;;;;;;;5106430;28;20505;-72
2022/08/16 07:49:30;;;;;;;14.05;12.55;;;;;;;;;;5102932;28;20431;-72
2022/08/16 07:51:56;;;;;;;14.98;13.48;;;;;;;;;;5083290;28;20059;-70
2022/08/16 07:54:22;;;;;;;18.13;14.10;;;;;;;;;;5091541;28;20071;-70
2022/08/16 07:56:48;;;;;;;15.27;13.50;;;;;;;;;;5121227;28;20477;-71
2022/08/16 07:59:14;;;;;;;16.48;14.65;;;;;;;;;;5102362;28;20060;-71
2022/08/16 08:01:40;;;;;;;16.25;14.40;;;;;;;;;;5122459;28;20126;-70
2022/08/16 08:04:09;;;;;;;15.93;14.23;;;;;;;;;;5116387;28;20051;-70
2022/08/16 08:06:35;;;;;;;17.15;15.48;;;;;;;;;;5104995;28;20048;-71
2022/08/16 08:09:03;;;;;;;17.10;14.45;;;;;;;;;;5104345;28;20071;-71
2022/08/16 08:11:29;;;;;;;16.63;15.00;;;;;;;;;;5085658;28;20123;-71
2022/08/16 08:13:58;;;;;;;16.77;14.93;;;;;;;;;;5105509;28;20048;-71
2022/08/16 08:16:24;;;;;;;16.20;14.02;;;;;;;;;;5106149;28;20096;-71
2022/08/16 08:18:53;;;;;;;14.82;12.70;;;;;;;;;;5112567;28;20039;-72
2022/08/16 08:21:20;;;;;;;17.35;13.18;;;;;;;;;;5113578;28;20055;-71
2022/08/16 08:23:47;;;;;;;16.63;12.85;;;;;;;;;;5123432;28;20047;-72
2022/08/16 08:26:16;;;;;;;16.70;12.32;;;;;;;;;;5128605;28;20043;-71
2022/08/16 08:28:42;;;;;;;14.48;12.25;;;;;;;;;;5116143;28;20031;-71
2022/08/16 08:31:09;;;;;;;14.85;12.50;;;;;;;;;;5132336;28;20027;-72
2022/08/16 08:33:35;;;;;;;15.68;12.13;;;;;;;;;;5121851;28;20047;-71
2022/08/16 08:36:03;;;;;;;11.48;10.27;;;;;;;;;;5098279;28;20036;-71
2022/08/16 08:38:29;;;;;;;15.20;10.63;;;;;;;;;;5110635;27;20057;-71
2022/08/16 08:40:56;;;;;;;12.40;10.02;;;;;;;;;;5116341;28;20055;-72
2022/08/16 08:43:22;;;;;;;12.35;10.20;;;;;;;;;;5121614;28;20039;-71
2022/08/16 08:45:48;;;;;;;16.35;10.45;;;;;;;;;;5122804;28;20119;-73
2022/08/16 08:48:15;;;;;;;15.20;9.60;;;;;;;;;;5120874;28;20585;-71
2022/08/16 08:50:41;;;;;;;16.52;9.80;;;;;;;;;;5129300;28;20028;-71
2022/08/16 08:53:07;;;;;;;11.70;8.45;;;;;;;;;;5118286;28;20502;-72
2022/08/16 08:55:34;;;;;;;10.98;9.00;;;;;;;;;;5112206;28;20046;-71
2022/08/16 08:58:00;;;;;;;12.27;8.57;;;;;;;;;;5112557;28;20090;-72
2022/08/16 09:00:28;;;;;;;11.48;8.52;;;;;;;;;;5114513;28;20032;-72
2022/08/16 09:02:55;;;;;;;13.45;9.43;;;;;;;;;;5107099;28;20028;-72
2022/08/16 09:05:24;;;;;;;12.25;8.95;;;;;;;;;;5125345;28;20043;-72
2022/08/16 09:07:51;;;;;;;13.63;9.60;;;;;;;;;;5121519;28;20047;-72
2022/08/16 09:10:17;;;;;;;13.15;10.43;;;;;;;;;;5105345;28;20483;-72
2022/08/16 09:12:45;;;;;;;12.02;9.93;;;;;;;;;;5123578;28;20056;-71
2022/08/16 09:15:12;;;;;;;11.98;10.65;;;;;;;;;;5126004;28;20044;-71
2022/08/16 09:17:38;;;;;;;12.60;8.85;;;;;;;;;;5108908;28;20097;-71
2022/08/16 09:20:06;;;;;;;12.27;10.15;;;;;;;;;;5103832;28;20076;-72
2022/08/16 09:22:32;;;;;;;12.07;8.55;;;;;;;;;;5110228;28;20058;-71
2022/08/16 09:24:58;;;;;;;19.50;9.95;;;;;;;;;;5120347;28;20024;-71
2022/08/16 09:27:24;;;;;;;12.32;8.82;;;;;;;;;;5131046;28;20043;-71
2022/08/16 09:29:50;;;;;;;14.15;9.43;;;;;;;;;;5132166;27;20061;-71
2022/08/16 09:32:17;;;;;;;12.13;9.95;;;;;;;;;;5109785;28;20066;-71
2022/08/16 09:34:43;;;;;;;14.05;10.30;;;;;;;;;;5108914;28;20040;-71
2022/08/16 09:37:09;;;;;;;10.95;9.38;;;;;;;;;;5107164;28;20048;-72
2022/08/16 09:39:35;;;;;;;14.23;10.43;;;;;;;;;;5105003;28;20383;-70
2022/08/16 09:42:01;;;;;;;14.82;10.82;;;;;;;;;;5110480;28;20032;-71
2022/08/16 09:44:30;;;;;;;11.57;10.40;;;;;;;;;;5106712;28;20058;-70
2022/08/16 09:46:57;;;;;;;12.82;10.30;;;;;;;;;;5090673;28;20114;-71
2022/08/16 09:49:23;;;;;;;14.55;9.98;;;;;;;;;;5106323;27;20080;-71
2022/08/16 09:51:52;;;;;;;13.32;10.32;;;;;;;;;;5123401;28;20090;-71
2022/08/16 09:54:18;;;;;;;13.13;9.73;;;;;;;;;;5102191;28;20058;-71
2022/08/16 09:56:45;;;;;;;14.40;10.32;;;;;;;;;;5131553;28;20080;-70
2022/08/16 09:59:13;;;;;;;13.23;9.15;;;;;;;;;;5124927;28;20043;-70
2022/08/16 10:01:41;;;;;;;12.93;7.90;;;;;;;;;;5115005;28;20040;-74
2022/08/16 10:04:07;;;;;;;11.30;7.22;;;;;;;;;;5097403;28;20114;-74
2022/08/16 10:06:33;;;;;;;10.02;7.47;;;;;;;;;;5096811;28;20040;-74
2022/08/16 10:08:59;;;;;;;9.98;6.70;;;;;;;;;;5099954;28;20398;-75
2022/08/16 10:14:10;;;;;;;8.20;6.07;;;;;;;;;;5097061;28;20040;-73
2022/08/16 10:16:36;;;;;;;9.00;5.28;;;;;;;;;;5116013;28;20490;-74
2022/08/16 10:19:02;;;;;;;11.80;5.45;;;;;;;;;;5115382;28;20051;-74
2022/08/16 10:21:29;;;;;;;11.90;6.05;;;;;;;;;;5098932;28;20090;-74
2022/08/16 10:23:55;;;;;;;7.07;5.13;;;;;;;;;;5102217;28;20047;-74
2022/08/16 10:26:23;;;;;;;9.45;5.35;;;;;;;;;;5081394;28;20044;-74
2022/08/16 10:28:50;;;;;;;8.07;5.50;;;;;;;;;;5116796;28;20493;-74
2022/08/16 10:31:16;;;;;;;13.18;5.40;;;;;;;;;;5102764;28;20052;-73
2022/08/16 10:33:42;;;;;;;8.77;4.68;;;;;;;;;;5110189;28;20039;-74
2022/08/16 10:36:08;;;;;;;11.02;6.20;;;;;;;;;;5115261;28;20047;-74
2022/08/16 10:38:37;;;;;;;8.98;5.05;;;;;;;;;;5093927;28;20036;-74
2022/08/16 10:41:04;;;;;;;10.80;5.70;;;;;;;;;;5096611;28;20069;-73
2022/08/16 10:43:30;;;;;;;10.85;5.50;;;;;;;;;;5097160;28;20044;-74
2022/08/16 10:45:56;;;;;;;7.03;4.70;;;;;;;;;;5095965;28;20048;-74
2022/08/16 10:48:22;;;;;;;6.03;4.40;;;;;;;;;;5096218;28;20040;-73
2022/08/16 10:50:48;;;;;;;7.15;4.60;;;;;;;;;;5080841;28;20051;-73
2022/08/16 10:53:16;;;;;;;7.47;5.07;;;;;;;;;;5104726;28;20044;-74
2022/08/16 10:55:43;;;;;;;10.85;5.05;;;;;;;;;;5097090;28;20417;-73
2022/08/16 10:58:11;;;;;;;9.02;4.47;;;;;;;;;;5102475;28;20063;-73
2022/08/16 11:00:39;;;;;;;7.38;4.25;;;;;;;;;;5106490;28;20048;-71
2022/08/16 11:03:06;;;;;;;8.15;3.40;;;;;;;;;;5117466;28;20040;-72
2022/08/16 11:05:33;;;;;;;8.55;4.60;;;;;;;;;;5119213;28;20118;-72
2022/08/16 11:07:59;;;;;;;8.65;4.95;;;;;;;;;;5119164;28;20034;-72
2022/08/16 11:10:34;;;;;;;8.55;4.50;;;;;;;;;;5137749;27;20023;-72
2022/08/16 11:13:00;;;;;;;8.90;4.55;;;;;;;;;;5108895;28;20043;-73
2022/08/16 11:15:27;;;;;;;8.50;4.35;;;;;;;;;;5083782;28;20124;-74
2022/08/16 11:17:54;;;;;;;8.73;4.22;;;;;;;;;;5117376;28;20100;-74
2022/08/16 11:20:20;;;;;;;7.80;4.55;;;;;;;;;;5106049;28;20047;-74
2022/08/16 11:22:47;;;;;;;10.13;4.15;;;;;;;;;;5078900;28;20044;-73
2022/08/16 11:25:15;;;;;;;10.63;4.18;;;;;;;;;;5115200;28;20089;-73
2022/08/16 11:27:44;;;;;;;9.93;4.05;;;;;;;;;;5118814;28;20043;-73
2022/08/16 11:30:13;;;;;;;7.15;3.70;;;;;;;;;;5114854;28;20051;-73
2022/08/16 11:32:39;;;;;;;8.90;4.18;;;;;;;;;;5112784;28;20108;-73
2022/08/16 11:35:09;;;;;;;6.85;3.90;;;;;;;;;;5113783;28;20089;-74
2022/08/16 11:37:35;;;;;;;7.78;3.85;;;;;;;;;;5089095;28;20066;-74
2022/08/16 11:40:01;;;;;;;9.07;4.55;;;;;;;;;;5105066;28;20039;-73
2022/08/16 11:42:28;;;;;;;12.32;4.60;;;;;;;;;;5096825;28;20549;-73
2022/08/16 11:44:54;;;;;;;10.57;3.92;;;;;;;;;;5087645;28;20044;-74
2022/08/16 11:47:20;;;;;;;8.88;3.92;;;;;;;;;;5082099;28;20397;-73
2022/08/16 11:49:46;;;;;;;7.85;4.07;;;;;;;;;;5106432;28;20040;-74
2022/08/16 11:52:12;;;;;;;8.40;4.20;;;;;;;;;;5097599;28;20050;-74
2022/08/16 11:54:39;;;;;;;7.55;3.97;;;;;;;;;;5096218;28;20347;-73
2022/08/16 11:57:05;;;;;;;10.73;4.30;;;;;;;;;;5095562;28;20059;-73
2022/08/16 11:59:32;;;;;;;8.25;4.13;;;;;;;;;;5078053;28;20131;-73
2022/08/16 12:01:58;;;;;;;10.32;4.25;;;;;;;;;;5096288;28;20044;-74
2022/08/16 12:04:24;;;;;;;7.70;4.53;;;;;;;;;;5078439;28;20071;-73
2022/08/16 12:06:51;;;;;;;10.85;4.72;;;;;;;;;;5099285;28;20083;-73
2022/08/16 12:09:17;;;;;;;6.15;4.50;;;;;;;;;;5095474;28;20044;-73
2022/08/16 12:11:43;;;;;;;9.50;4.85;;;;;;;;;;5099597;28;20222;-73
2022/08/16 12:14:09;;;;;;;11.23;4.45;;;;;;;;;;5078869;28;20124;-73
2022/08/16 12:16:36;;;;;;;9.45;4.90;;;;;;;;;;5093062;28;20052;-73
2022/08/16 12:19:04;;;;;;;9.95;4.72;;;;;;;;;;5118254;28;20119;-72
2022/08/16 12:21:30;;;;;;;9.73;4.60;;;;;;;;;;5096067;28;20039;-72
2022/08/16 12:23:56;;;;;;;6.90;4.70;;;;;;;;;;5109906;28;20043;-72
2022/08/16 12:26:22;;;;;;;6.53;4.32;;;;;;;;;;5096112;28;20062;-73
2022/08/16 12:28:51;;;;;;;9.13;4.70;;;;;;;;;;5079388;28;20043;-73
2022/08/16 12:31:17;;;;;;;9.05;5.13;;;;;;;;;;5104943;28;20489;-73
2022/08/16 12:33:43;;;;;;;8.63;5.00;;;;;;;;;;5115317;28;20059;-73
2022/08/16 12:36:09;;;;;;;7.93;4.28;;;;;;;;;;5113758;28;20047;-73
2022/08/16 12:38:36;;;;;;;12.98;4.30;;;;;;;;;;5094935;28;20047;-73
2022/08/16 12:41:03;;;;;;;8.48;4.15;;;;;;;;;;5106023;28;20103;-74
2022/08/16 12:43:30;;;;;;;7.88;4.40;;;;;;;;;;5098461;28;21250;-74
2022/08/16 12:45:58;;;;;;;7.43;4.43;;;;;;;;;;5095801;28;20105;-73
2022/08/16 12:51:13;;;;;;;8.32;3.83;;;;;;;;;;5095098;28;20048;-74
2022/08/16 12:53:39;;;;;;;9.57;4.13;;;;;;;;;;5094390;28;20082;-74
2022/08/16 12:56:06;;;;;;;9.93;4.20;;;;;;;;;;5095106;28;20405;-72
2022/08/16 12:58:32;;;;;;;6.85;4.22;;;;;;;;;;5100577;28;20055;-73
2022/08/16 13:00:58;;;;;;;8.90;4.18;;;;;;;;;;5098418;28;20101;-73
2022/08/16 13:03:25;;;;;;;9.68;4.78;;;;;;;;;;5106904;28;20407;-73
2022/08/16 13:05:51;;;;;;;8.75;4.18;;;;;;;;;;5094774;28;20040;-73
2022/08/16 13:08:18;;;;;;;6.40;4.05;;;;;;;;;;5076331;28;20095;-73
2022/08/16 13:10:47;;;;;;;8.18;4.65;;;;;;;;;;5095486;28;20052;-73
2022/08/16 13:13:19;;;;;;;8.15;4.25;;;;;;;;;;5110094;28;20127;-73
2022/08/16 13:15:46;;;;;;;7.70;4.32;;;;;;;;;;5110293;28;20135;-73
2022/08/16 13:18:12;;;;;;;9.30;4.95;;;;;;;;;;5111545;28;20047;-73
2022/08/16 13:20:38;;;;;;;8.02;4.30;;;;;;;;;;5105793;28;20092;-73
2022/08/16 13:23:11;;;;;;;7.72;4.30;;;;;;;;;;5102631;28;20132;-73
2022/08/16 13:25:37;;;;;;;8.10;4.80;;;;;;;;;;5093771;28;20036;-73
2022/08/16 13:28:04;;;;;;;7.88;4.43;;;;;;;;;;5094343;28;20101;-74
2022/08/16 13:30:34;;;;;;;7.03;4.35;;;;;;;;;;5092284;28;20054;-73
2022/08/16 13:33:00;;;;;;;7.35;4.30;;;;;;;;;;5091484;28;20043;-73
2022/08/16 13:35:27;;;;;;;7.55;4.43;;;;;;;;;;5078699;28;20098;-74
2022/08/16 13:37:53;;;;;;;9.07;4.00;;;;;;;;;;5098703;28;20035;-73
2022/08/16 13:40:19;;;;;;;9.07;4.05;;;;;;;;;;5094599;28;20054;-73
2022/08/16 13:42:46;;;;;;;9.57;4.28;;;;;;;;;;5100980;28;20052;-73
2022/08/16 13:45:13;;;;;;;10.48;4.60;;;;;;;;;;5110001;28;20055;-73
2022/08/16 13:47:39;;;;;;;8.80;4.68;;;;;;;;;;5097893;28;20119;-73
2022/08/16 13:50:05;;;;;;;7.43;4.50;;;;;;;;;;5096813;28;20055;-74
2022/08/16 13:52:33;;;;;;;6.55;4.10;;;;;;;;;;5098366;28;20052;-73
2022/08/16 13:54:59;;;;;;;8.30;4.40;;;;;;;;;;5110512;28;20509;-73
2022/08/16 13:57:25;;;;;;;7.68;4.30;;;;;;;;;;5099577;28;20115;-73
2022/08/16 13:59:51;;;;;;;8.85;4.35;;;;;;;;;;5107307;28;20051;-73
2022/08/16 14:02:17;;;;;;;10.07;4.28;;;;;;;;;;5113760;28;20052;-73
2022/08/16 14:04:43;;;;;;;6.50;3.90;;;;;;;;;;5114392;28;20035;-73
2022/08/16 14:07:11;;;;;;;7.85;4.07;;;;;;;;;;5103626;28;20067;-73
2022/08/16 14:09:37;;;;;;;10.57;4.00;;;;;;;;;;5097172;28;20048;-72
2022/08/16 14:12:05;;;;;;;7.78;3.80;;;;;;;;;;5100853;28;20066;-73
2022/08/16 14:14:31;;;;;;;7.20;4.45;;;;;;;;;;5117858;28;20101;-73
2022/08/16 14:16:59;;;;;;;7.32;4.15;;;;;;;;;;5084329;28;20047;-73
2022/08/16 14:19:25;;;;;;;5.45;3.55;;;;;;;;;;5104960;28;20043;-73
2022/08/16 14:21:54;;;;;;;5.63;3.58;;;;;;;;;;5105975;28;20039;-73
2022/08/16 14:24:20;;;;;;;8.05;4.00;;;;;;;;;;5101744;28;20055;-74
2022/08/16 14:26:47;;;;;;;7.50;3.45;;;;;;;;;;5092587;28;20440;-74
2022/08/16 14:29:13;;;;;;;7.45;3.70;;;;;;;;;;5104235;28;20055;-74